sensor_id;sensor_type;location;lat;lon;timestamp;P1;durP1;ratioP1;P2;durP2;ratioP2
85455;SDS011;75846;43.732;10.404;2024-03-07T00:02:15;0.20;;;0.20;;
85455;SDS011;75846;43.732;10.404;2024-03-07T00:04:42;0.17;;;0.17;;
85455;SDS011;75846;43.732;10.404;2024-03-07T00:07:10;0.20;;;0.20;;
85455;SDS011;75846;43.732;10.404;2024-03-07T00:09:37;0.13;;;0.13;;
85455;SDS011;75846;43.732;10.404;2024-03-07T00:12:05;0.13;;;0.13;;
85455;SDS011;75846;43.732;10.404;2024-03-07T00:14:33;0.10;;;0.10;;
85455;SDS011;75846;43.732;10.404;2024-03-07T00:17:03;0.20;;;0.20;;
85455;SDS011;75846;43.732;10.404;2024-03-07T00:19:30;0.20;;;0.20;;
85455;SDS011;75846;43.732;10.404;2024-03-07T00:21:57;0.13;;;0.13;;
85455;SDS011;75846;43.732;10.404;2024-03-07T00:24:25;0.10;;;0.10;;
85455;SDS011;75846;43.732;10.404;2024-03-07T00:26:52;0.10;;;0.10;;
85455;SDS011;75846;43.732;10.404;2024-03-07T00:29:20;0.20;;;0.20;;
85455;SDS011;75846;43.732;10.404;2024-03-07T00:31:48;0.20;;;0.20;;
85455;SDS011;75846;43.732;10.404;2024-03-07T00:34:17;0.17;;;0.17;;
85455;SDS011;75846;43.732;10.404;2024-03-07T00:36:45;0.10;;;0.10;;
85455;SDS011;75846;43.732;10.404;2024-03-07T00:39:12;0.10;;;0.10;;
85455;SDS011;75846;43.732;10.404;2024-03-07T00:41:39;0.20;;;0.20;;
85455;SDS011;75846;43.732;10.404;2024-03-07T00:44:07;0.10;;;0.10;;
85455;SDS011;75846;43.732;10.404;2024-03-07T00:46:34;0.10;;;0.10;;
85455;SDS011;75846;43.732;10.404;2024-03-07T00:49:02;0.10;;;0.10;;
85455;SDS011;75846;43.732;10.404;2024-03-07T00:51:31;0.10;;;0.10;;
85455;SDS011;75846;43.732;10.404;2024-03-07T00:53:59;0.10;;;0.10;;
85455;SDS011;75846;43.732;10.404;2024-03-07T00:56:26;0.10;;;0.10;;
85455;SDS011;75846;43.732;10.404;2024-03-07T00:58:54;0.20;;;0.20;;
85455;SDS011;75846;43.732;10.404;2024-03-07T01:01:22;0.10;;;0.10;;
85455;SDS011;75846;43.732;10.404;2024-03-07T01:03:49;0.20;;;0.20;;
85455;SDS011;75846;43.732;10.404;2024-03-07T01:06:17;0.10;;;0.10;;
85455;SDS011;75846;43.732;10.404;2024-03-07T01:08:46;0.20;;;0.20;;
85455;SDS011;75846;43.732;10.404;2024-03-07T01:11:14;0.10;;;0.10;;
85455;SDS011;75846;43.732;10.404;2024-03-07T01:13:41;0.20;;;0.20;;
85455;SDS011;75846;43.732;10.404;2024-03-07T01:16:09;0.10;;;0.10;;
85455;SDS011;75846;43.732;10.404;2024-03-07T01:18:37;0.10;;;0.10;;
85455;SDS011;75846;43.732;10.404;2024-03-07T01:21:04;0.10;;;0.10;;
85455;SDS011;75846;43.732;10.404;2024-03-07T01:23:33;0.10;;;0.10;;
85455;SDS011;75846;43.732;10.404;2024-03-07T01:26:02;0.10;;;0.10;;
85455;SDS011;75846;43.732;10.404;2024-03-07T01:28:30;0.17;;;0.17;;
85455;SDS011;75846;43.732;10.404;2024-03-07T01:30:57;0.10;;;0.10;;
85455;SDS011;75846;43.732;10.404;2024-03-07T01:33:24;0.17;;;0.17;;
85455;SDS011;75846;43.732;10.404;2024-03-07T01:35:52;0.10;;;0.10;;
85455;SDS011;75846;43.732;10.404;2024-03-07T01:38:19;0.10;;;0.10;;
85455;SDS011;75846;43.732;10.404;2024-03-07T01:40:46;0.10;;;0.10;;
85455;SDS011;75846;43.732;10.404;2024-03-07T01:43:15;0.10;;;0.10;;
85455;SDS011;75846;43.732;10.404;2024-03-07T01:45:42;0.10;;;0.10;;
85455;SDS011;75846;43.732;10.404;2024-03-07T01:48:10;0.10;;;0.10;;
85455;SDS011;75846;43.732;10.404;2024-03-07T01:50:39;0.10;;;0.10;;
85455;SDS011;75846;43.732;10.404;2024-03-07T01:53:07;0.10;;;0.10;;
85455;SDS011;75846;43.732;10.404;2024-03-07T01:55:37;0.10;;;0.10;;
85455;SDS011;75846;43.732;10.404;2024-03-07T01:58:05;0.10;;;0.10;;
85455;SDS011;75846;43.732;10.404;2024-03-07T02:00:36;0.20;;;0.20;;
85455;SDS011;75846;43.732;10.404;2024-03-07T02:03:04;0.10;;;0.10;;
85455;SDS011;75846;43.732;10.404;2024-03-07T02:05:32;0.10;;;0.10;;
85455;SDS011;75846;43.732;10.404;2024-03-07T02:08:00;0.10;;;0.10;;
85455;SDS011;75846;43.732;10.404;2024-03-07T02:10:28;0.10;;;0.10;;
85455;SDS011;75846;43.732;10.404;2024-03-07T02:12:55;0.10;;;0.10;;
85455;SDS011;75846;43.732;10.404;2024-03-07T02:15:22;0.10;;;0.10;;
85455;SDS011;75846;43.732;10.404;2024-03-07T02:17:51;0.10;;;0.10;;
85455;SDS011;75846;43.732;10.404;2024-03-07T02:20:18;0.10;;;0.10;;
85455;SDS011;75846;43.732;10.404;2024-03-07T02:22:48;0.10;;;0.10;;
85455;SDS011;75846;43.732;10.404;2024-03-07T02:25:16;0.10;;;0.10;;
85455;SDS011;75846;43.732;10.404;2024-03-07T02:27:43;0.10;;;0.10;;
85455;SDS011;75846;43.732;10.404;2024-03-07T02:30:11;0.10;;;0.10;;
85455;SDS011;75846;43.732;10.404;2024-03-07T02:32:39;0.10;;;0.10;;
85455;SDS011;75846;43.732;10.404;2024-03-07T02:35:07;0.10;;;0.10;;
85455;SDS011;75846;43.732;10.404;2024-03-07T02:37:35;0.10;;;0.10;;
85455;SDS011;75846;43.732;10.404;2024-03-07T02:40:04;0.10;;;0.10;;
85455;SDS011;75846;43.732;10.404;2024-03-07T02:42:33;0.13;;;0.13;;
85455;SDS011;75846;43.732;10.404;2024-03-07T02:45:00;0.17;;;0.17;;
85455;SDS011;75846;43.732;10.404;2024-03-07T02:47:28;0.10;;;0.10;;
85455;SDS011;75846;43.732;10.404;2024-03-07T02:49:55;0.10;;;0.10;;
85455;SDS011;75846;43.732;10.404;2024-03-07T02:52:22;0.10;;;0.10;;
85455;SDS011;75846;43.732;10.404;2024-03-07T02:54:50;0.10;;;0.10;;
85455;SDS011;75846;43.732;10.404;2024-03-07T02:57:19;0.10;;;0.10;;
85455;SDS011;75846;43.732;10.404;2024-03-07T02:59:46;0.10;;;0.10;;
85455;SDS011;75846;43.732;10.404;2024-03-07T03:02:13;0.10;;;0.10;;
85455;SDS011;75846;43.732;10.404;2024-03-07T03:04:40;0.10;;;0.10;;
85455;SDS011;75846;43.732;10.404;2024-03-07T03:07:07;0.10;;;0.10;;
85455;SDS011;75846;43.732;10.404;2024-03-07T03:09:35;0.10;;;0.10;;
85455;SDS011;75846;43.732;10.404;2024-03-07T03:12:05;0.10;;;0.10;;
85455;SDS011;75846;43.732;10.404;2024-03-07T03:14:35;0.10;;;0.10;;
85455;SDS011;75846;43.732;10.404;2024-03-07T03:17:02;0.10;;;0.10;;
85455;SDS011;75846;43.732;10.404;2024-03-07T03:19:30;0.10;;;0.10;;
85455;SDS011;75846;43.732;10.404;2024-03-07T03:21:57;0.10;;;0.10;;
85455;SDS011;75846;43.732;10.404;2024-03-07T03:24:25;0.10;;;0.10;;
85455;SDS011;75846;43.732;10.404;2024-03-07T03:26:52;0.10;;;0.10;;
85455;SDS011;75846;43.732;10.404;2024-03-07T03:29:19;0.10;;;0.10;;
85455;SDS011;75846;43.732;10.404;2024-03-07T03:31:48;0.10;;;0.10;;
85455;SDS011;75846;43.732;10.404;2024-03-07T03:34:15;0.10;;;0.10;;
85455;SDS011;75846;43.732;10.404;2024-03-07T03:36:43;0.20;;;0.20;;
85455;SDS011;75846;43.732;10.404;2024-03-07T03:39:10;0.13;;;0.13;;
85455;SDS011;75846;43.732;10.404;2024-03-07T03:41:38;0.10;;;0.10;;
85455;SDS011;75846;43.732;10.404;2024-03-07T03:44:05;0.10;;;0.10;;
85455;SDS011;75846;43.732;10.404;2024-03-07T03:46:33;0.10;;;0.10;;
85455;SDS011;75846;43.732;10.404;2024-03-07T03:49:02;0.10;;;0.10;;
85455;SDS011;75846;43.732;10.404;2024-03-07T03:51:30;0.20;;;0.20;;
85455;SDS011;75846;43.732;10.404;2024-03-07T03:53:57;0.10;;;0.10;;
85455;SDS011;75846;43.732;10.404;2024-03-07T03:56:24;0.20;;;0.20;;
85455;SDS011;75846;43.732;10.404;2024-03-07T03:58:53;0.10;;;0.10;;
85455;SDS011;75846;43.732;10.404;2024-03-07T04:01:20;0.10;;;0.10;;
85455;SDS011;75846;43.732;10.404;2024-03-07T04:03:48;0.10;;;0.10;;
85455;SDS011;75846;43.732;10.404;2024-03-07T04:06:18;0.10;;;0.10;;
85455;SDS011;75846;43.732;10.404;2024-03-07T04:08:45;0.10;;;0.10;;
85455;SDS011;75846;43.732;10.404;2024-03-07T04:11:13;0.20;;;0.20;;
85455;SDS011;75846;43.732;10.404;2024-03-07T04:13:42;0.10;;;0.10;;
85455;SDS011;75846;43.732;10.404;2024-03-07T04:16:11;0.10;;;0.10;;
85455;SDS011;75846;43.732;10.404;2024-03-07T04:18:38;0.10;;;0.10;;
85455;SDS011;75846;43.732;10.404;2024-03-07T04:21:05;0.10;;;0.10;;
85455;SDS011;75846;43.732;10.404;2024-03-07T04:23:36;0.10;;;0.10;;
85455;SDS011;75846;43.732;10.404;2024-03-07T04:26:06;0.20;;;0.20;;
85455;SDS011;75846;43.732;10.404;2024-03-07T04:28:34;0.10;;;0.10;;
85455;SDS011;75846;43.732;10.404;2024-03-07T04:31:01;0.20;;;0.20;;
85455;SDS011;75846;43.732;10.404;2024-03-07T04:33:28;0.10;;;0.10;;
85455;SDS011;75846;43.732;10.404;2024-03-07T04:35:55;0.10;;;0.10;;
85455;SDS011;75846;43.732;10.404;2024-03-07T04:38:22;0.10;;;0.10;;
85455;SDS011;75846;43.732;10.404;2024-03-07T04:40:51;0.20;;;0.20;;
85455;SDS011;75846;43.732;10.404;2024-03-07T04:43:19;0.10;;;0.10;;
85455;SDS011;75846;43.732;10.404;2024-03-07T04:45:46;0.10;;;0.10;;
85455;SDS011;75846;43.732;10.404;2024-03-07T04:48:13;0.13;;;0.13;;
85455;SDS011;75846;43.732;10.404;2024-03-07T04:50:40;0.10;;;0.10;;
85455;SDS011;75846;43.732;10.404;2024-03-07T04:53:07;0.10;;;0.10;;
85455;SDS011;75846;43.732;10.404;2024-03-07T04:55:35;0.10;;;0.10;;
85455;SDS011;75846;43.732;10.404;2024-03-07T04:58:04;0.10;;;0.10;;
85455;SDS011;75846;43.732;10.404;2024-03-07T05:00:32;0.10;;;0.10;;
85455;SDS011;75846;43.732;10.404;2024-03-07T05:02:59;0.10;;;0.10;;
85455;SDS011;75846;43.732;10.404;2024-03-07T05:05:26;0.20;;;0.20;;
85455;SDS011;75846;43.732;10.404;2024-03-07T05:07:53;0.20;;;0.20;;
85455;SDS011;75846;43.732;10.404;2024-03-07T05:10:21;0.20;;;0.20;;
85455;SDS011;75846;43.732;10.404;2024-03-07T05:12:48;0.20;;;0.20;;
85455;SDS011;75846;43.732;10.404;2024-03-07T05:15:17;0.10;;;0.10;;
85455;SDS011;75846;43.732;10.404;2024-03-07T05:17:45;0.20;;;0.20;;
85455;SDS011;75846;43.732;10.404;2024-03-07T05:20:12;0.17;;;0.17;;
85455;SDS011;75846;43.732;10.404;2024-03-07T05:22:40;0.10;;;0.10;;
85455;SDS011;75846;43.732;10.404;2024-03-07T05:25:09;0.20;;;0.20;;
85455;SDS011;75846;43.732;10.404;2024-03-07T05:27:37;0.13;;;0.13;;
85455;SDS011;75846;43.732;10.404;2024-03-07T05:30:05;0.10;;;0.10;;
85455;SDS011;75846;43.732;10.404;2024-03-07T05:32:36;0.13;;;0.13;;
85455;SDS011;75846;43.732;10.404;2024-03-07T05:35:05;0.10;;;0.10;;
85455;SDS011;75846;43.732;10.404;2024-03-07T05:37:33;0.20;;;0.20;;
85455;SDS011;75846;43.732;10.404;2024-03-07T05:40:00;0.10;;;0.10;;
85455;SDS011;75846;43.732;10.404;2024-03-07T05:42:29;0.10;;;0.10;;
85455;SDS011;75846;43.732;10.404;2024-03-07T05:44:57;0.20;;;0.20;;
85455;SDS011;75846;43.732;10.404;2024-03-07T05:47:24;0.17;;;0.17;;
85455;SDS011;75846;43.732;10.404;2024-03-07T05:49:53;0.10;;;0.10;;
85455;SDS011;75846;43.732;10.404;2024-03-07T05:52:20;0.10;;;0.10;;
85455;SDS011;75846;43.732;10.404;2024-03-07T05:54:47;0.10;;;0.10;;
85455;SDS011;75846;43.732;10.404;2024-03-07T05:57:14;0.10;;;0.10;;
85455;SDS011;75846;43.732;10.404;2024-03-07T05:59:41;0.10;;;0.10;;
85455;SDS011;75846;43.732;10.404;2024-03-07T06:02:10;0.10;;;0.10;;
85455;SDS011;75846;43.732;10.404;2024-03-07T06:04:40;0.10;;;0.10;;
85455;SDS011;75846;43.732;10.404;2024-03-07T06:07:10;0.20;;;0.20;;
85455;SDS011;75846;43.732;10.404;2024-03-07T06:09:37;0.20;;;0.20;;
85455;SDS011;75846;43.732;10.404;2024-03-07T06:12:05;0.10;;;0.10;;
85455;SDS011;75846;43.732;10.404;2024-03-07T06:14:34;0.10;;;0.10;;
85455;SDS011;75846;43.732;10.404;2024-03-07T06:17:01;0.10;;;0.10;;
85455;SDS011;75846;43.732;10.404;2024-03-07T06:19:29;0.20;;;0.20;;
85455;SDS011;75846;43.732;10.404;2024-03-07T06:21:56;0.20;;;0.20;;
85455;SDS011;75846;43.732;10.404;2024-03-07T06:24:25;0.10;;;0.10;;
85455;SDS011;75846;43.732;10.404;2024-03-07T06:26:55;0.10;;;0.10;;
85455;SDS011;75846;43.732;10.404;2024-03-07T06:29:28;0.10;;;0.10;;
85455;SDS011;75846;43.732;10.404;2024-03-07T06:31:56;0.10;;;0.10;;
85455;SDS011;75846;43.732;10.404;2024-03-07T06:34:24;0.10;;;0.10;;
85455;SDS011;75846;43.732;10.404;2024-03-07T06:36:52;0.10;;;0.10;;
85455;SDS011;75846;43.732;10.404;2024-03-07T06:39:20;0.10;;;0.10;;
85455;SDS011;75846;43.732;10.404;2024-03-07T06:41:50;0.20;;;0.20;;
85455;SDS011;75846;43.732;10.404;2024-03-07T06:44:17;0.13;;;0.13;;
85455;SDS011;75846;43.732;10.404;2024-03-07T06:46:48;0.20;;;0.20;;
85455;SDS011;75846;43.732;10.404;2024-03-07T06:49:15;0.10;;;0.10;;
85455;SDS011;75846;43.732;10.404;2024-03-07T06:51:43;0.10;;;0.10;;
85455;SDS011;75846;43.732;10.404;2024-03-07T06:54:10;0.20;;;0.20;;
85455;SDS011;75846;43.732;10.404;2024-03-07T06:56:38;0.20;;;0.20;;
85455;SDS011;75846;43.732;10.404;2024-03-07T06:59:10;0.10;;;0.10;;
85455;SDS011;75846;43.732;10.404;2024-03-07T07:01:39;0.10;;;0.10;;
85455;SDS011;75846;43.732;10.404;2024-03-07T07:04:08;0.10;;;0.10;;
85455;SDS011;75846;43.732;10.404;2024-03-07T07:06:38;0.20;;;0.20;;
85455;SDS011;75846;43.732;10.404;2024-03-07T07:09:08;0.20;;;0.20;;
85455;SDS011;75846;43.732;10.404;2024-03-07T07:11:35;0.20;;;0.20;;
85455;SDS011;75846;43.732;10.404;2024-03-07T07:14:02;0.20;;;0.20;;
85455;SDS011;75846;43.732;10.404;2024-03-07T07:16:31;0.20;;;0.20;;
85455;SDS011;75846;43.732;10.404;2024-03-07T07:19:01;0.10;;;0.10;;
85455;SDS011;75846;43.732;10.404;2024-03-07T07:21:28;0.07;;;0.07;;
85455;SDS011;75846;43.732;10.404;2024-03-07T07:23:55;0.00;;;0.00;;
85455;SDS011;75846;43.732;10.404;2024-03-07T07:26:23;0.10;;;0.10;;
85455;SDS011;75846;43.732;10.404;2024-03-07T07:28:51;0.07;;;0.07;;
85455;SDS011;75846;43.732;10.404;2024-03-07T07:31:19;0.00;;;0.00;;
85455;SDS011;75846;43.732;10.404;2024-03-07T07:33:48;0.10;;;0.10;;
85455;SDS011;75846;43.732;10.404;2024-03-07T07:36:16;0.20;;;0.20;;
85455;SDS011;75846;43.732;10.404;2024-03-07T07:38:44;0.00;;;0.00;;
85455;SDS011;75846;43.732;10.404;2024-03-07T07:41:12;0.00;;;0.00;;
85455;SDS011;75846;43.732;10.404;2024-03-07T07:43:40;0.00;;;0.00;;
85455;SDS011;75846;43.732;10.404;2024-03-07T07:46:07;0.00;;;0.00;;
85455;SDS011;75846;43.732;10.404;2024-03-07T07:48:34;0.00;;;0.00;;
85455;SDS011;75846;43.732;10.404;2024-03-07T07:51:03;0.00;;;0.00;;
85455;SDS011;75846;43.732;10.404;2024-03-07T07:53:31;0.00;;;0.00;;
85455;SDS011;75846;43.732;10.404;2024-03-07T07:55:59;0.00;;;0.00;;
85455;SDS011;75846;43.732;10.404;2024-03-07T07:58:26;0.00;;;0.00;;
85455;SDS011;75846;43.732;10.404;2024-03-07T08:00:54;0.00;;;0.00;;
85455;SDS011;75846;43.732;10.404;2024-03-07T08:03:21;0.00;;;0.00;;
85455;SDS011;75846;43.732;10.404;2024-03-07T08:05:49;0.00;;;0.00;;
85455;SDS011;75846;43.732;10.404;2024-03-07T08:08:18;0.00;;;0.00;;
85455;SDS011;75846;43.732;10.404;2024-03-07T08:10:47;0.00;;;0.00;;
85455;SDS011;75846;43.732;10.404;2024-03-07T08:13:14;0.00;;;0.00;;
85455;SDS011;75846;43.732;10.404;2024-03-07T08:15:41;0.00;;;0.00;;
85455;SDS011;75846;43.732;10.404;2024-03-07T08:18:08;0.00;;;0.00;;
85455;SDS011;75846;43.732;10.404;2024-03-07T08:20:36;0.00;;;0.00;;
85455;SDS011;75846;43.732;10.404;2024-03-07T08:23:04;0.00;;;0.00;;
85455;SDS011;75846;43.732;10.404;2024-03-07T08:25:33;0.00;;;0.00;;
85455;SDS011;75846;43.732;10.404;2024-03-07T08:28:01;0.00;;;0.00;;
85455;SDS011;75846;43.732;10.404;2024-03-07T08:30:28;0.00;;;0.00;;
85455;SDS011;75846;43.732;10.404;2024-03-07T08:32:56;0.00;;;0.00;;
85455;SDS011;75846;43.732;10.404;2024-03-07T08:35:24;0.00;;;0.00;;
85455;SDS011;75846;43.732;10.404;2024-03-07T08:37:54;0.00;;;0.00;;
85455;SDS011;75846;43.732;10.404;2024-03-07T08:40:23;0.00;;;0.00;;
85455;SDS011;75846;43.732;10.404;2024-03-07T08:42:53;0.00;;;0.00;;
85455;SDS011;75846;43.732;10.404;2024-03-07T08:45:21;0.00;;;0.00;;
85455;SDS011;75846;43.732;10.404;2024-03-07T08:47:49;0.00;;;0.00;;
85455;SDS011;75846;43.732;10.404;2024-03-07T08:50:17;0.00;;;0.00;;
85455;SDS011;75846;43.732;10.404;2024-03-07T08:52:45;0.00;;;0.00;;
85455;SDS011;75846;43.732;10.404;2024-03-07T08:55:13;0.00;;;0.00;;
85455;SDS011;75846;43.732;10.404;2024-03-07T08:57:42;0.00;;;0.00;;
85455;SDS011;75846;43.732;10.404;2024-03-07T09:00:13;0.00;;;0.00;;
85455;SDS011;75846;43.732;10.404;2024-03-07T09:02:48;0.00;;;0.00;;
85455;SDS011;75846;43.732;10.404;2024-03-07T09:05:17;0.00;;;0.00;;
85455;SDS011;75846;43.732;10.404;2024-03-07T09:07:45;0.00;;;0.00;;
85455;SDS011;75846;43.732;10.404;2024-03-07T09:10:12;0.00;;;0.00;;
85455;SDS011;75846;43.732;10.404;2024-03-07T09:12:40;0.00;;;0.00;;
85455;SDS011;75846;43.732;10.404;2024-03-07T09:15:08;0.00;;;0.00;;
85455;SDS011;75846;43.732;10.404;2024-03-07T09:17:38;0.00;;;0.00;;
85455;SDS011;75846;43.732;10.404;2024-03-07T09:20:06;0.00;;;0.00;;
85455;SDS011;75846;43.732;10.404;2024-03-07T09:22:39;0.00;;;0.00;;
85455;SDS011;75846;43.732;10.404;2024-03-07T09:25:07;0.00;;;0.00;;
85455;SDS011;75846;43.732;10.404;2024-03-07T09:27:35;0.00;;;0.00;;
85455;SDS011;75846;43.732;10.404;2024-03-07T09:30:03;0.00;;;0.00;;
85455;SDS011;75846;43.732;10.404;2024-03-07T09:32:39;0.00;;;0.00;;
85455;SDS011;75846;43.732;10.404;2024-03-07T09:35:07;0.00;;;0.00;;
85455;SDS011;75846;43.732;10.404;2024-03-07T09:37:38;0.00;;;0.00;;
85455;SDS011;75846;43.732;10.404;2024-03-07T09:40:07;0.00;;;0.00;;
85455;SDS011;75846;43.732;10.404;2024-03-07T09:42:37;0.00;;;0.00;;
85455;SDS011;75846;43.732;10.404;2024-03-07T09:45:11;0.00;;;0.00;;
85455;SDS011;75846;43.732;10.404;2024-03-07T09:47:44;0.05;;;0.05;;
85455;SDS011;75846;43.732;10.404;2024-03-07T09:50:14;0.00;;;0.00;;
85455;SDS011;75846;43.732;10.404;2024-03-07T09:52:44;0.00;;;0.00;;
85455;SDS011;75846;43.732;10.404;2024-03-07T09:55:15;0.00;;;0.00;;
85455;SDS011;75846;43.732;10.404;2024-03-07T09:57:42;0.35;;;0.35;;
85455;SDS011;75846;43.732;10.404;2024-03-07T10:00:12;0.00;;;0.00;;
85455;SDS011;75846;43.732;10.404;2024-03-07T10:02:50;0.00;;;0.00;;
85455;SDS011;75846;43.732;10.404;2024-03-07T10:05:20;0.00;;;0.00;;
85455;SDS011;75846;43.732;10.404;2024-03-07T10:07:51;0.00;;;0.00;;
85455;SDS011;75846;43.732;10.404;2024-03-07T10:10:18;0.10;;;0.10;;
85455;SDS011;75846;43.732;10.404;2024-03-07T10:12:47;0.00;;;0.00;;
85455;SDS011;75846;43.732;10.404;2024-03-07T10:15:15;0.00;;;0.00;;
85455;SDS011;75846;43.732;10.404;2024-03-07T10:17:42;0.00;;;0.00;;
85455;SDS011;75846;43.732;10.404;2024-03-07T10:20:14;0.00;;;0.00;;
85455;SDS011;75846;43.732;10.404;2024-03-07T10:22:45;0.00;;;0.00;;
85455;SDS011;75846;43.732;10.404;2024-03-07T10:25:16;0.00;;;0.00;;
85455;SDS011;75846;43.732;10.404;2024-03-07T10:27:45;0.00;;;0.00;;
85455;SDS011;75846;43.732;10.404;2024-03-07T10:30:14;0.00;;;0.00;;
85455;SDS011;75846;43.732;10.404;2024-03-07T10:32:46;0.00;;;0.00;;
85455;SDS011;75846;43.732;10.404;2024-03-07T10:35:19;0.00;;;0.00;;
85455;SDS011;75846;43.732;10.404;2024-03-07T10:37:47;0.00;;;0.00;;
85455;SDS011;75846;43.732;10.404;2024-03-07T10:40:15;0.00;;;0.00;;
85455;SDS011;75846;43.732;10.404;2024-03-07T10:42:44;0.00;;;0.00;;
85455;SDS011;75846;43.732;10.404;2024-03-07T10:45:17;0.00;;;0.00;;
85455;SDS011;75846;43.732;10.404;2024-03-07T10:47:48;0.00;;;0.00;;
85455;SDS011;75846;43.732;10.404;2024-03-07T10:50:27;0.00;;;0.00;;
85455;SDS011;75846;43.732;10.404;2024-03-07T10:53:10;0.00;;;0.00;;
85455;SDS011;75846;43.732;10.404;2024-03-07T10:55:49;0.00;;;0.00;;
85455;SDS011;75846;43.732;10.404;2024-03-07T10:58:27;0.00;;;0.00;;
85455;SDS011;75846;43.732;10.404;2024-03-07T11:01:04;0.00;;;0.00;;
85455;SDS011;75846;43.732;10.404;2024-03-07T11:03:32;0.00;;;0.00;;
85455;SDS011;75846;43.732;10.404;2024-03-07T11:06:03;0.00;;;0.00;;
85455;SDS011;75846;43.732;10.404;2024-03-07T11:08:36;0.00;;;0.00;;
85455;SDS011;75846;43.732;10.404;2024-03-07T11:11:04;0.00;;;0.00;;
85455;SDS011;75846;43.732;10.404;2024-03-07T11:13:33;0.00;;;0.00;;
85455;SDS011;75846;43.732;10.404;2024-03-07T11:16:02;0.00;;;0.00;;
85455;SDS011;75846;43.732;10.404;2024-03-07T11:18:32;0.00;;;0.00;;
85455;SDS011;75846;43.732;10.404;2024-03-07T11:20:59;0.00;;;0.00;;
85455;SDS011;75846;43.732;10.404;2024-03-07T11:23:30;0.00;;;0.00;;
85455;SDS011;75846;43.732;10.404;2024-03-07T11:26:03;0.00;;;0.00;;
85455;SDS011;75846;43.732;10.404;2024-03-07T11:28:33;0.00;;;0.00;;
85455;SDS011;75846;43.732;10.404;2024-03-07T11:31:09;0.00;;;0.00;;
85455;SDS011;75846;43.732;10.404;2024-03-07T11:33:38;0.00;;;0.00;;
85455;SDS011;75846;43.732;10.404;2024-03-07T11:36:07;0.00;;;0.00;;
85455;SDS011;75846;43.732;10.404;2024-03-07T11:38:38;0.00;;;0.00;;
85455;SDS011;75846;43.732;10.404;2024-03-07T11:41:12;0.00;;;0.00;;
85455;SDS011;75846;43.732;10.404;2024-03-07T11:43:40;0.00;;;0.00;;
85455;SDS011;75846;43.732;10.404;2024-03-07T11:46:08;0.00;;;0.00;;
85455;SDS011;75846;43.732;10.404;2024-03-07T11:48:38;0.00;;;0.00;;
85455;SDS011;75846;43.732;10.404;2024-03-07T11:51:08;0.00;;;0.00;;
85455;SDS011;75846;43.732;10.404;2024-03-07T11:53:40;0.00;;;0.00;;
85455;SDS011;75846;43.732;10.404;2024-03-07T11:56:07;0.00;;;0.00;;
85455;SDS011;75846;43.732;10.404;2024-03-07T11:58:41;0.00;;;0.00;;
85455;SDS011;75846;43.732;10.404;2024-03-07T12:01:17;0.00;;;0.00;;
85455;SDS011;75846;43.732;10.404;2024-03-07T12:03:44;0.00;;;0.00;;
85455;SDS011;75846;43.732;10.404;2024-03-07T12:06:15;0.00;;;0.00;;
85455;SDS011;75846;43.732;10.404;2024-03-07T12:08:46;0.00;;;0.00;;
85455;SDS011;75846;43.732;10.404;2024-03-07T12:11:14;0.00;;;0.00;;
85455;SDS011;75846;43.732;10.404;2024-03-07T12:13:42;0.00;;;0.00;;
85455;SDS011;75846;43.732;10.404;2024-03-07T12:16:10;0.00;;;0.00;;
85455;SDS011;75846;43.732;10.404;2024-03-07T12:18:38;0.00;;;0.00;;
85455;SDS011;75846;43.732;10.404;2024-03-07T12:21:07;0.00;;;0.00;;
85455;SDS011;75846;43.732;10.404;2024-03-07T12:23:37;0.00;;;0.00;;
85455;SDS011;75846;43.732;10.404;2024-03-07T12:26:07;0.00;;;0.00;;
85455;SDS011;75846;43.732;10.404;2024-03-07T12:28:36;0.00;;;0.00;;
85455;SDS011;75846;43.732;10.404;2024-03-07T12:31:03;0.00;;;0.00;;
85455;SDS011;75846;43.732;10.404;2024-03-07T12:33:40;0.00;;;0.00;;
85455;SDS011;75846;43.732;10.404;2024-03-07T12:36:12;0.00;;;0.00;;
85455;SDS011;75846;43.732;10.404;2024-03-07T12:38:39;0.00;;;0.00;;
85455;SDS011;75846;43.732;10.404;2024-03-07T12:41:09;0.00;;;0.00;;
85455;SDS011;75846;43.732;10.404;2024-03-07T12:43:39;0.00;;;0.00;;
85455;SDS011;75846;43.732;10.404;2024-03-07T12:46:10;0.00;;;0.00;;
85455;SDS011;75846;43.732;10.404;2024-03-07T12:48:38;0.00;;;0.00;;
85455;SDS011;75846;43.732;10.404;2024-03-07T12:51:06;0.00;;;0.00;;
85455;SDS011;75846;43.732;10.404;2024-03-07T12:53:34;0.00;;;0.00;;
85455;SDS011;75846;43.732;10.404;2024-03-07T12:56:04;0.00;;;0.00;;
85455;SDS011;75846;43.732;10.404;2024-03-07T12:58:33;0.00;;;0.00;;
85455;SDS011;75846;43.732;10.404;2024-03-07T13:01:00;0.00;;;0.00;;
85455;SDS011;75846;43.732;10.404;2024-03-07T13:03:27;0.00;;;0.00;;
85455;SDS011;75846;43.732;10.404;2024-03-07T13:05:55;0.00;;;0.00;;
85455;SDS011;75846;43.732;10.404;2024-03-07T13:08:26;0.00;;;0.00;;
85455;SDS011;75846;43.732;10.404;2024-03-07T13:10:54;0.00;;;0.00;;
85455;SDS011;75846;43.732;10.404;2024-03-07T13:13:24;0.10;;;0.10;;
85455;SDS011;75846;43.732;10.404;2024-03-07T13:15:53;0.10;;;0.10;;
85455;SDS011;75846;43.732;10.404;2024-03-07T13:18:21;0.10;;;0.10;;
85455;SDS011;75846;43.732;10.404;2024-03-07T13:20:48;0.00;;;0.00;;
85455;SDS011;75846;43.732;10.404;2024-03-07T13:23:15;0.00;;;0.00;;
85455;SDS011;75846;43.732;10.404;2024-03-07T13:25:43;0.00;;;0.00;;
85455;SDS011;75846;43.732;10.404;2024-03-07T13:28:11;0.00;;;0.00;;
85455;SDS011;75846;43.732;10.404;2024-03-07T13:30:42;0.00;;;0.00;;
85455;SDS011;75846;43.732;10.404;2024-03-07T13:33:15;0.00;;;0.00;;
85455;SDS011;75846;43.732;10.404;2024-03-07T13:35:43;0.10;;;0.10;;
85455;SDS011;75846;43.732;10.404;2024-03-07T13:38:10;0.00;;;0.00;;
85455;SDS011;75846;43.732;10.404;2024-03-07T13:40:40;0.13;;;0.13;;
85455;SDS011;75846;43.732;10.404;2024-03-07T13:43:08;0.00;;;0.00;;
85455;SDS011;75846;43.732;10.404;2024-03-07T13:45:35;0.10;;;0.10;;
85455;SDS011;75846;43.732;10.404;2024-03-07T13:48:06;0.10;;;0.10;;
85455;SDS011;75846;43.732;10.404;2024-03-07T13:50:37;0.00;;;0.00;;
85455;SDS011;75846;43.732;10.404;2024-03-07T13:53:06;0.00;;;0.00;;
85455;SDS011;75846;43.732;10.404;2024-03-07T13:55:46;0.10;;;0.10;;
85455;SDS011;75846;43.732;10.404;2024-03-07T13:58:23;0.00;;;0.00;;
85455;SDS011;75846;43.732;10.404;2024-03-07T14:01:08;0.10;;;0.10;;
85455;SDS011;75846;43.732;10.404;2024-03-07T14:03:51;0.10;;;0.10;;
85455;SDS011;75846;43.732;10.404;2024-03-07T14:06:54;0.00;;;0.00;;
85455;SDS011;75846;43.732;10.404;2024-03-07T14:09:43;0.10;;;0.10;;
85455;SDS011;75846;43.732;10.404;2024-03-07T14:12:25;0.00;;;0.00;;
85455;SDS011;75846;43.732;10.404;2024-03-07T14:15:13;0.00;;;0.00;;
85455;SDS011;75846;43.732;10.404;2024-03-07T14:18:26;0.00;;;0.00;;
85455;SDS011;75846;43.732;10.404;2024-03-07T14:24:53;0.00;;;0.00;;
85455;SDS011;75846;43.732;10.404;2024-03-07T14:27:49;0.00;;;0.00;;
85455;SDS011;75846;43.732;10.404;2024-03-07T14:30:27;0.10;;;0.10;;
85455;SDS011;75846;43.732;10.404;2024-03-07T14:33:06;0.10;;;0.10;;
85455;SDS011;75846;43.732;10.404;2024-03-07T14:35:35;0.00;;;0.00;;
85455;SDS011;75846;43.732;10.404;2024-03-07T14:38:27;0.00;;;0.00;;
85455;SDS011;75846;43.732;10.404;2024-03-07T14:40:56;0.13;;;0.13;;
85455;SDS011;75846;43.732;10.404;2024-03-07T14:43:24;0.10;;;0.10;;
85455;SDS011;75846;43.732;10.404;2024-03-07T14:45:56;0.10;;;0.10;;
85455;SDS011;75846;43.732;10.404;2024-03-07T14:48:28;0.00;;;0.00;;
85455;SDS011;75846;43.732;10.404;2024-03-07T14:50:56;0.00;;;0.00;;